Etusivu
METAR-TAF:

METAR-TAF

Lentoasemat :

Öljynporauslautta

Goeree Le, Alankomaat

Leveyspiiri: 51-55-33N, Pituuspiiri: 3-40-12E, korkeus merenpinnasta: 19 m

Tämänhetkinen sää

Tämä raportti tehtiin 30 minuuttia sitten, kello 02.55 UTC
Tuuli 28 kn etelästä/lounaasta
Lämpötila 9°C
Kosteus 100%
Ilmanpaine 993 hPa
Näkyvyys 10 km tai enemmän

METAR: EHSC 290255Z AUTO 21028KT 9999 ///////// 09/09 Q0993 W08/H17

Aika: 04:25 (03:25 UTC)


TAF: puuttuu

Säähavainnot ja -ennusteet yli 4000 lentoasemalta (METAR- ja TAF-raportit).

Käytössä olevat sääasemat on merkitty karttaan keltaisilla ja punaisilla pisteillä.

Aseta hiiri pisteen päälle nähdäksesi sääaseman nimen.

Klikkaa sitten nähdäksesi säähavainnot ja -ennusteet.

Kartan vaihtaminen: klikkaa mustalla rastilla varustettuja vihreitä pisteitä, niin voit zoomata sisään; viivalla varustettua vihreää pistettä, niin voit zoomata ulos tai vihreitä nuolia, niin pääset viereisille kartoille.


METAR-TAF: